createdAt,value
2022-07-28T00:01:14.352Z,17.50
2022-07-28T00:03:48.827Z,17.50
2022-07-28T00:06:17.073Z,17.50
2022-07-28T00:08:45.114Z,17.50
2022-07-28T00:11:14.631Z,18.30
2022-07-28T00:13:42.596Z,17.50
2022-07-28T00:16:10.693Z,17.80
2022-07-28T00:18:38.838Z,18.40
2022-07-28T00:21:06.893Z,17.30
2022-07-28T00:23:38.659Z,17.20
2022-07-28T00:26:07.936Z,16.90
2022-07-28T00:28:37.716Z,16.90
2022-07-28T00:31:07.866Z,16.80
2022-07-28T00:33:38.294Z,16.80
2022-07-28T00:36:07.195Z,16.80
2022-07-28T00:38:38.937Z,16.80
2022-07-28T00:41:13.316Z,16.90
2022-07-28T00:43:45.048Z,16.90
2022-07-28T00:46:14.072Z,16.80
2022-07-28T00:48:44.684Z,16.70
2022-07-28T00:51:13.034Z,16.60
2022-07-28T00:53:41.554Z,16.60
2022-07-28T00:56:10.545Z,16.90
2022-07-28T00:58:39.587Z,16.40
2022-07-28T01:01:10.860Z,16.30
2022-07-28T01:03:43.047Z,16.30
2022-07-28T01:06:18.915Z,16.30
2022-07-28T01:08:59.747Z,16.20
2022-07-28T01:11:42.676Z,16.70
2022-07-28T01:14:18.058Z,16.60
2022-07-28T01:16:53.156Z,16.90
2022-07-28T01:19:36.867Z,16.10
2022-07-28T01:22:06.928Z,15.80
2022-07-28T01:24:42.347Z,15.90
2022-07-28T01:27:16.160Z,15.60
2022-07-28T01:30:08.295Z,15.60
2022-07-28T01:32:45.165Z,16.10
2022-07-28T01:35:17.527Z,15.60
2022-07-28T01:37:49.778Z,15.70
2022-07-28T01:40:21.742Z,15.80
2022-07-28T01:42:53.419Z,15.80
2022-07-28T01:45:22.506Z,16.30
2022-07-28T01:47:54.245Z,15.80
2022-07-28T01:50:25.829Z,15.80
2022-07-28T01:52:55.104Z,15.60
2022-07-28T01:55:24.792Z,15.40
2022-07-28T01:57:56.564Z,15.60
2022-07-28T02:00:27.763Z,15.20
2022-07-28T02:02:59.030Z,15.20
2022-07-28T02:05:28.954Z,15.20
2022-07-28T02:07:58.788Z,15.10
2022-07-28T02:10:28.287Z,15.10
2022-07-28T02:12:57.449Z,14.90
2022-07-28T02:15:27.408Z,14.80
2022-07-28T02:17:57.138Z,15.20
2022-07-28T02:20:26.175Z,14.70
2022-07-28T02:22:55.078Z,14.70
2022-07-28T02:25:23.441Z,14.80
2022-07-28T02:27:57.804Z,14.80
2022-07-28T02:30:33.089Z,14.80
2022-07-28T02:33:06.147Z,14.80
2022-07-28T02:35:42.820Z,15.00
2022-07-28T02:38:21.684Z,14.60
2022-07-28T02:40:52.479Z,14.40
2022-07-28T02:43:50.127Z,14.30
2022-07-28T02:46:23.562Z,14.40
2022-07-28T02:48:57.731Z,14.30
2022-07-28T02:51:28.942Z,14.40
2022-07-28T02:53:58.216Z,14.80
2022-07-28T02:56:27.469Z,14.30
2022-07-28T02:58:56.375Z,14.80
2022-07-28T03:01:26.022Z,14.10
2022-07-28T03:03:55.878Z,14.10
2022-07-28T03:06:28.415Z,14.00
2022-07-28T03:08:57.429Z,14.10
2022-07-28T03:11:26.925Z,14.10
2022-07-28T03:13:55.240Z,14.10
2022-07-28T03:16:23.389Z,14.30
2022-07-28T03:18:51.391Z,14.20
2022-07-28T03:21:20.774Z,14.20
2022-07-28T03:23:50.891Z,14.20
2022-07-28T03:26:24.500Z,14.10
2022-07-28T03:28:54.017Z,14.10
2022-07-28T03:31:23.139Z,14.10
2022-07-28T03:33:51.366Z,13.80
2022-07-28T03:36:27.403Z,13.90
2022-07-28T03:38:59.966Z,14.00
2022-07-28T03:41:29.289Z,13.80
2022-07-28T03:43:58.173Z,13.80
2022-07-28T03:46:27.667Z,13.90
2022-07-28T03:48:56.025Z,13.90
2022-07-28T03:51:28.248Z,13.90
2022-07-28T03:53:56.498Z,13.90
2022-07-28T03:56:24.609Z,14.00
2022-07-28T03:58:52.705Z,13.90
2022-07-28T04:01:20.835Z,14.10
2022-07-28T04:03:48.902Z,13.60
2022-07-28T04:06:17.092Z,13.80
2022-07-28T04:08:46.621Z,13.60
2022-07-28T04:11:14.669Z,13.40
2022-07-28T04:13:42.780Z,13.40
2022-07-28T04:16:10.814Z,13.20
2022-07-28T04:18:39.500Z,13.20
2022-07-28T04:21:07.988Z,13.40
2022-07-28T04:23:36.142Z,13.40
2022-07-28T04:26:05.945Z,12.20
2022-07-28T04:28:34.084Z,13.90
2022-07-28T04:31:02.442Z,13.50
2022-07-28T04:33:30.865Z,13.50
2022-07-28T04:36:00.755Z,13.50
2022-07-28T04:38:28.993Z,13.60
2022-07-28T04:40:57.574Z,14.70
2022-07-28T04:43:27.366Z,13.90
2022-07-28T04:45:55.512Z,13.70
2022-07-28T04:48:24.732Z,13.90
2022-07-28T04:50:53.645Z,14.10
2022-07-28T04:53:22.494Z,14.30
2022-07-28T04:55:51.701Z,14.60
2022-07-28T04:58:23.715Z,14.70
2022-07-28T05:00:53.843Z,16.00
2022-07-28T05:03:22.308Z,15.20
2022-07-28T05:05:54.310Z,14.80
2022-07-28T05:08:26.237Z,15.40
2022-07-28T05:10:55.950Z,15.30
2022-07-28T05:13:24.265Z,15.40
2022-07-28T05:15:53.839Z,15.60
2022-07-28T05:18:22.016Z,16.80
2022-07-28T05:20:50.108Z,15.80
2022-07-28T05:23:18.535Z,14.70
2022-07-28T05:25:47.306Z,16.10
2022-07-28T05:28:15.320Z,16.10
2022-07-28T05:30:45.353Z,16.00
2022-07-28T05:33:16.151Z,16.10
2022-07-28T05:35:44.870Z,16.40
2022-07-28T05:38:13.162Z,16.30
2022-07-28T05:40:41.252Z,16.40
2022-07-28T05:43:09.904Z,16.40
2022-07-28T05:45:38.013Z,16.30
2022-07-28T05:48:06.384Z,16.50
2022-07-28T05:50:36.378Z,16.40
2022-07-28T05:53:04.808Z,16.70
2022-07-28T05:55:32.904Z,16.70
2022-07-28T05:58:01.325Z,16.90
2022-07-28T06:00:29.477Z,17.00
2022-07-28T06:03:02.003Z,17.10
2022-07-28T06:05:31.152Z,17.10
2022-07-28T06:08:01.705Z,17.00
2022-07-28T06:10:51.760Z,17.20
2022-07-28T06:13:20.393Z,17.50
2022-07-28T06:15:48.968Z,17.50
2022-07-28T06:18:17.357Z,17.80
2022-07-28T06:20:45.557Z,17.60
2022-07-28T06:23:18.100Z,17.60
2022-07-28T06:25:46.165Z,17.90
2022-07-28T06:28:14.553Z,18.00
2022-07-28T06:30:42.619Z,18.10
2022-07-28T06:33:15.271Z,18.10
2022-07-28T06:35:51.229Z,18.10
2022-07-28T06:38:21.429Z,18.20
2022-07-28T06:40:49.669Z,18.10
2022-07-28T06:43:17.783Z,18.20
2022-07-28T06:45:46.168Z,18.30
2022-07-28T06:48:14.729Z,18.00
2022-07-28T06:50:43.523Z,18.80
2022-07-28T06:53:11.790Z,18.60
2022-07-28T06:55:41.432Z,18.80
2022-07-28T06:58:09.720Z,20.00
2022-07-28T07:00:38.075Z,19.00
2022-07-28T07:03:09.630Z,18.90
2022-07-28T07:05:38.083Z,19.00
2022-07-28T07:08:06.489Z,19.00
2022-07-28T07:10:36.117Z,19.20
2022-07-28T07:13:05.582Z,19.30
2022-07-28T07:15:34.973Z,19.40
2022-07-28T07:18:03.153Z,19.50
2022-07-28T07:20:31.130Z,19.60
2022-07-28T07:22:59.413Z,19.80
2022-07-28T07:25:33.887Z,19.80
2022-07-28T07:28:01.970Z,19.90
2022-07-28T07:30:31.492Z,20.00
2022-07-28T07:32:59.469Z,20.00
2022-07-28T07:35:27.714Z,20.20
2022-07-28T07:37:57.186Z,19.10
2022-07-28T07:40:25.335Z,20.30
2022-07-28T07:42:53.372Z,20.40
2022-07-28T07:45:21.636Z,20.30
2022-07-28T07:47:51.110Z,20.40
2022-07-28T07:50:19.135Z,20.40
2022-07-28T07:52:49.913Z,20.40
2022-07-28T07:55:18.565Z,20.40
2022-07-28T07:57:46.761Z,20.40
2022-07-28T08:00:28.745Z,20.80
2022-07-28T08:02:59.385Z,20.60
2022-07-28T08:05:35.154Z,20.70
2022-07-28T08:08:05.220Z,20.90
2022-07-28T08:10:33.860Z,21.00
2022-07-28T08:13:01.981Z,21.10
2022-07-28T08:15:30.596Z,21.20
2022-07-28T08:18:00.393Z,21.30
2022-07-28T08:20:28.485Z,21.50
2022-07-28T08:22:58.169Z,21.60
2022-07-28T08:25:27.257Z,21.70
2022-07-28T08:27:55.622Z,21.80
2022-07-28T08:30:27.545Z,21.70
2022-07-28T08:33:02.905Z,21.50
2022-07-28T08:35:34.620Z,21.50
2022-07-28T08:38:05.289Z,21.50
2022-07-28T08:40:33.768Z,21.80
2022-07-28T08:43:10.352Z,22.10
2022-07-28T08:45:40.929Z,22.40
2022-07-28T08:48:13.229Z,22.50
2022-07-28T08:50:42.659Z,22.60
2022-07-28T08:53:11.602Z,22.80
2022-07-28T08:55:40.781Z,23.00
2022-07-28T08:58:09.135Z,23.00
2022-07-28T09:00:37.283Z,23.00
2022-07-28T09:03:06.867Z,23.10
2022-07-28T09:05:38.002Z,23.10
2022-07-28T09:08:07.006Z,23.00
2022-07-28T09:10:35.197Z,22.70
2022-07-28T09:13:03.282Z,22.70
2022-07-28T09:15:32.747Z,22.90
2022-07-28T09:18:01.823Z,23.10
2022-07-28T09:20:30.718Z,23.30
2022-07-28T09:23:02.119Z,23.40
2022-07-28T09:25:31.372Z,23.50
2022-07-28T09:28:08.268Z,23.60
2022-07-28T09:30:53.238Z,23.50
2022-07-28T09:33:42.757Z,23.70
2022-07-28T09:36:16.644Z,23.80
2022-07-28T09:38:46.441Z,23.90
2022-07-28T09:41:18.625Z,23.80
2022-07-28T09:43:52.521Z,24.10
2022-07-28T09:46:24.993Z,24.30
2022-07-28T09:48:56.549Z,24.40
2022-07-28T09:51:27.523Z,24.50
2022-07-28T09:54:11.603Z,24.70
2022-07-28T09:56:40.957Z,24.60
2022-07-28T09:59:09.364Z,24.70
2022-07-28T10:01:52.673Z,24.60
2022-07-28T10:04:31.810Z,24.80
2022-07-28T10:07:05.591Z,24.80
2022-07-28T10:09:35.152Z,24.80
2022-07-28T10:12:17.792Z,24.80
2022-07-28T10:14:47.330Z,24.50
2022-07-28T10:17:30.539Z,24.40
2022-07-28T10:20:00.170Z,24.40
2022-07-28T10:22:32.955Z,24.40
2022-07-28T10:25:12.115Z,24.80
2022-07-28T10:27:42.647Z,24.60
2022-07-28T10:30:12.363Z,24.70
2022-07-28T10:32:42.975Z,24.80
2022-07-28T10:35:12.835Z,25.00
2022-07-28T10:37:46.993Z,25.20
2022-07-28T10:40:17.355Z,25.00
2022-07-28T10:42:45.837Z,25.40
2022-07-28T10:45:15.620Z,25.30
2022-07-28T10:47:45.084Z,25.60
2022-07-28T10:50:13.890Z,25.70
2022-07-28T10:52:48.933Z,26.00
2022-07-28T10:55:31.867Z,26.10
2022-07-28T10:58:11.189Z,26.30
2022-07-28T11:00:56.087Z,26.30
2022-07-28T11:03:40.942Z,26.50
2022-07-28T11:06:30.330Z,26.60
2022-07-28T11:08:59.842Z,26.60
2022-07-28T11:11:50.970Z,26.60
2022-07-28T11:14:38.107Z,26.50
2022-07-28T11:17:15.445Z,26.20
2022-07-28T11:20:24.557Z,26.10
2022-07-28T11:22:54.335Z,26.30
2022-07-28T11:25:23.137Z,26.70
2022-07-28T11:28:05.946Z,27.10
2022-07-28T11:30:53.307Z,27.40
2022-07-28T11:33:22.205Z,27.70
2022-07-28T11:35:58.460Z,27.80
2022-07-28T11:38:27.616Z,27.80
2022-07-28T11:40:57.575Z,27.80
2022-07-28T11:43:37.785Z,27.80
2022-07-28T11:46:37.435Z,27.80
2022-07-28T11:49:20.825Z,27.70
2022-07-28T11:52:23.627Z,27.90
2022-07-28T11:54:55.018Z,28.10
2022-07-28T11:57:25.894Z,28.30
2022-07-28T12:00:00.653Z,28.40
2022-07-28T12:02:33.262Z,28.40
2022-07-28T12:05:10.925Z,28.30
2022-07-28T12:07:42.051Z,28.40
2022-07-28T12:13:29.069Z,28.60
2022-07-28T12:15:58.919Z,28.50
2022-07-28T12:18:27.072Z,28.50
2022-07-28T12:20:55.939Z,28.40
2022-07-28T12:23:45.630Z,28.50
2022-07-28T12:26:31.280Z,28.40
2022-07-28T12:29:00.283Z,28.50
2022-07-28T12:31:33.252Z,28.60
2022-07-28T12:34:02.074Z,28.80
2022-07-28T12:36:31.041Z,28.90
2022-07-28T12:39:00.225Z,29.00
2022-07-28T12:41:33.345Z,29.30
2022-07-28T12:44:05.913Z,29.50
2022-07-28T12:46:35.987Z,29.70
2022-07-28T12:49:04.791Z,29.90
2022-07-28T12:51:37.796Z,29.90
2022-07-28T12:54:08.380Z,29.70
2022-07-28T12:56:46.603Z,29.30
2022-07-28T12:59:14.944Z,29.10
2022-07-28T13:01:51.925Z,29.20
2022-07-28T13:04:38.963Z,29.20
2022-07-28T13:07:09.865Z,29.40
2022-07-28T13:09:41.511Z,29.60
2022-07-28T13:12:20.138Z,29.60
2022-07-28T13:14:52.173Z,30.30
2022-07-28T13:17:23.402Z,30.50
2022-07-28T13:19:51.829Z,30.70
2022-07-28T13:22:30.056Z,31.00
2022-07-28T13:24:58.199Z,31.10
2022-07-28T13:27:26.673Z,31.20
2022-07-28T13:29:55.077Z,31.20
2022-07-28T13:32:24.880Z,31.40
2022-07-28T13:34:53.093Z,31.40
2022-07-28T13:37:21.212Z,31.20
2022-07-28T13:39:54.256Z,31.00
2022-07-28T13:42:23.594Z,31.00
2022-07-28T13:44:52.062Z,31.00
2022-07-28T13:47:20.872Z,31.40
2022-07-28T13:49:50.798Z,31.90
2022-07-28T13:52:32.703Z,32.20
2022-07-28T13:55:05.968Z,33.80
2022-07-28T13:57:36.718Z,32.70
2022-07-28T14:00:08.028Z,33.30
2022-07-28T14:02:36.699Z,33.50
2022-07-28T14:05:07.153Z,33.80
2022-07-28T14:07:35.533Z,34.20
2022-07-28T14:10:03.800Z,34.40
2022-07-28T14:12:37.550Z,34.40
2022-07-28T14:15:09.842Z,33.60
2022-07-28T14:17:43.639Z,32.80
2022-07-28T14:20:16.424Z,33.00
2022-07-28T14:22:46.654Z,33.70
2022-07-28T14:25:20.759Z,34.50
2022-07-28T14:27:49.887Z,35.20
2022-07-28T14:30:19.278Z,36.10
2022-07-28T14:32:47.622Z,36.40
2022-07-28T14:35:17.495Z,36.20
2022-07-28T14:40:36.493Z,35.80
2022-07-28T14:43:07.958Z,35.90
2022-07-28T14:46:00.504Z,36.60
2022-07-28T14:48:24.201Z,37.20
2022-07-28T14:50:55.392Z,37.70
2022-07-28T14:53:24.129Z,38.20
2022-07-28T14:55:56.059Z,38.50
2022-07-28T14:58:24.399Z,38.20
2022-07-28T15:00:52.768Z,38.40
2022-07-28T15:03:21.086Z,37.90
2022-07-28T15:05:49.199Z,37.60
2022-07-28T15:08:18.918Z,37.60
2022-07-28T15:10:49.138Z,37.50
2022-07-28T15:13:17.554Z,37.10
2022-07-28T15:15:46.774Z,37.00
2022-07-28T15:18:14.913Z,39.00
2022-07-28T15:20:43.616Z,37.00
2022-07-28T15:23:14.591Z,37.10
2022-07-28T15:25:46.403Z,37.90
2022-07-28T15:28:17.799Z,38.40
2022-07-28T15:30:51.907Z,38.20
2022-07-28T15:33:21.248Z,37.40
2022-07-28T15:35:58.733Z,36.90
2022-07-28T15:38:29.636Z,36.10
2022-07-28T15:41:01.247Z,35.40
2022-07-28T15:43:30.058Z,34.80
2022-07-28T15:45:58.530Z,35.00
2022-07-28T15:48:26.670Z,35.20
2022-07-28T15:50:54.741Z,34.80
2022-07-28T15:53:22.779Z,35.00
2022-07-28T15:55:51.822Z,35.20
2022-07-28T15:58:22.368Z,35.20
2022-07-28T16:00:50.773Z,35.40
2022-07-28T16:03:19.354Z,35.60
2022-07-28T16:05:49.773Z,35.70
2022-07-28T16:08:22.377Z,35.20
2022-07-28T16:10:52.485Z,35.10
2022-07-28T16:13:33.363Z,34.50
2022-07-28T16:16:07.379Z,34.70
2022-07-28T16:18:36.640Z,34.90
2022-07-28T16:21:05.489Z,34.70
2022-07-28T16:23:34.058Z,34.40
2022-07-28T16:26:02.883Z,34.20
2022-07-28T16:28:32.365Z,33.90
2022-07-28T16:31:00.604Z,33.60
2022-07-28T16:33:33.534Z,33.30
2022-07-28T16:36:02.051Z,33.00
2022-07-28T16:38:30.241Z,32.00
2022-07-28T16:40:58.315Z,32.10
2022-07-28T16:43:26.403Z,31.70
2022-07-28T16:45:56.034Z,31.50
2022-07-28T16:48:24.171Z,31.30
2022-07-28T16:50:52.175Z,31.10
2022-07-28T16:53:20.418Z,31.00
2022-07-28T16:55:48.960Z,30.60
2022-07-28T16:58:18.079Z,30.50
2022-07-28T17:00:46.206Z,30.50
2022-07-28T17:03:16.948Z,30.80
2022-07-28T17:05:45.308Z,30.40
2022-07-28T17:08:13.629Z,30.30
2022-07-28T17:10:41.865Z,30.50
2022-07-28T17:13:13.145Z,30.30
2022-07-28T17:15:41.545Z,30.20
2022-07-28T17:18:09.736Z,29.60
2022-07-28T17:20:42.589Z,29.40
2022-07-28T17:23:10.887Z,30.10
2022-07-28T17:26:20.840Z,29.20
2022-07-28T17:28:28.289Z,29.10
2022-07-28T17:30:56.520Z,28.80
2022-07-28T17:33:24.941Z,28.90
2022-07-28T17:35:56.222Z,28.60
2022-07-28T17:38:30.955Z,29.60
2022-07-28T17:41:04.066Z,28.50
2022-07-28T17:43:32.941Z,28.40
2022-07-28T17:46:03.001Z,28.30
2022-07-28T17:48:38.483Z,28.50
2022-07-28T17:51:08.215Z,28.10
2022-07-28T17:53:39.648Z,27.00
2022-07-28T17:56:08.934Z,28.30
2022-07-28T17:58:37.596Z,27.70
2022-07-28T18:01:12.051Z,27.90
2022-07-28T18:03:58.304Z,27.90
2022-07-28T18:06:31.968Z,27.90
2022-07-28T18:09:03.786Z,27.80
2022-07-28T18:11:57.192Z,27.80
2022-07-28T18:14:27.611Z,27.80
2022-07-28T18:16:56.448Z,27.70
2022-07-28T18:19:24.596Z,27.70
2022-07-28T18:21:54.304Z,28.30
2022-07-28T18:24:22.993Z,27.60
2022-07-28T18:26:51.711Z,27.60
2022-07-28T18:29:21.039Z,27.60
2022-07-28T18:31:50.183Z,28.20
2022-07-28T18:34:18.728Z,27.50
2022-07-28T18:36:47.140Z,27.50
2022-07-28T18:39:16.678Z,27.40
2022-07-28T18:41:46.619Z,27.50
2022-07-28T18:44:17.269Z,27.30
2022-07-28T18:46:46.257Z,27.30
2022-07-28T20:26:50.835Z,22.60
2022-07-28T20:29:19.026Z,22.30
2022-07-28T20:31:47.164Z,22.00
2022-07-28T20:34:17.219Z,21.40
2022-07-28T20:36:46.018Z,20.90
2022-07-28T20:39:34.774Z,20.70
2022-07-28T20:42:02.430Z,20.30
2022-07-28T20:44:30.866Z,20.00
2022-07-28T20:47:00.532Z,19.60
2022-07-28T20:49:31.581Z,19.80
2022-07-28T20:52:00.241Z,19.80
2022-07-28T20:54:28.390Z,20.30
2022-07-28T20:56:56.646Z,19.60
2022-07-28T20:59:27.663Z,19.50
2022-07-28T21:01:56.511Z,19.20
2022-07-28T21:04:24.830Z,19.70
2022-07-28T21:07:01.695Z,19.80
2022-07-28T21:09:30.466Z,20.00
2022-07-28T21:11:58.665Z,20.00
2022-07-28T21:14:26.919Z,19.70
2022-07-28T21:16:56.253Z,19.50
2022-07-28T21:19:24.716Z,19.50
2022-07-28T21:21:54.465Z,19.60
2022-07-28T21:24:22.539Z,19.70
2022-07-28T21:26:51.649Z,19.80
2022-07-28T21:32:02.226Z,19.90
2022-07-28T21:34:34.926Z,20.00
2022-07-28T21:37:05.041Z,20.10
2022-07-28T21:39:33.796Z,20.10
2022-07-28T21:42:05.674Z,20.10
2022-07-28T21:44:35.738Z,20.10
2022-07-28T21:47:03.874Z,19.90
2022-07-28T21:49:32.304Z,20.00
2022-07-28T21:52:00.832Z,19.70
2022-07-28T21:54:30.340Z,19.90
2022-07-28T21:56:58.802Z,19.90
2022-07-28T21:59:27.045Z,19.80
2022-07-28T22:01:55.364Z,20.00
2022-07-28T22:04:23.496Z,20.00
2022-07-28T22:06:53.978Z,20.00
2022-07-28T22:09:22.083Z,20.00
2022-07-28T22:11:51.702Z,20.10
2022-07-28T22:14:20.039Z,20.10
2022-07-28T22:16:48.240Z,20.20
2022-07-28T22:19:16.430Z,20.00
2022-07-28T22:21:44.501Z,20.30
2022-07-28T22:24:16.238Z,19.90
2022-07-28T22:26:44.724Z,19.90
2022-07-28T22:29:14.308Z,20.00
2022-07-28T22:31:42.421Z,18.90
2022-07-28T22:34:10.809Z,19.80
2022-07-28T22:36:38.834Z,19.80
2022-07-28T22:39:06.912Z,20.00
2022-07-28T22:41:35.069Z,21.20
2022-07-28T22:44:03.303Z,19.90
2022-07-28T22:46:32.843Z,19.80
2022-07-28T22:49:00.963Z,20.00
2022-07-28T22:51:29.150Z,20.10
2022-07-28T22:53:58.883Z,19.80
2022-07-28T22:56:27.140Z,19.90
2022-07-28T22:59:03.173Z,19.90
2022-07-28T23:01:33.009Z,20.10
2022-07-28T23:04:02.009Z,19.80
2022-07-28T23:06:30.861Z,19.70
2022-07-28T23:08:58.896Z,19.90
2022-07-28T23:11:26.946Z,19.90
2022-07-28T23:13:54.963Z,19.90
2022-07-28T23:16:23.822Z,19.90
2022-07-28T23:18:53.271Z,20.10
2022-07-28T23:21:21.284Z,20.00
2022-07-28T23:23:49.346Z,19.90
2022-07-28T23:26:17.436Z,19.90
2022-07-28T23:28:45.443Z,19.90
2022-07-28T23:31:13.499Z,20.00
2022-07-28T23:33:55.468Z,19.80
2022-07-28T23:36:27.785Z,19.80
2022-07-28T23:38:57.051Z,19.90
2022-07-28T23:41:25.848Z,20.00
2022-07-28T23:43:54.310Z,19.80
2022-07-28T23:46:23.758Z,20.00
2022-07-28T23:48:51.938Z,19.60
2022-07-28T23:51:21.135Z,19.60
2022-07-28T23:53:55.926Z,19.70
2022-07-28T23:56:24.460Z,19.70
2022-07-28T23:58:52.621Z,19.60
